TVF74JQ LFPO-LEIB
Flight info
| Callsign | TVF74JQ |
|---|---|
| Flight time | 1h 38m |
| Altitude | 39000 |
| Route | ERIXU DCT ETAMO DCT ADEKA DCT MOKDI DCT MEN DCT BADAM DCT KANIG DCT KENAS DCT POS |
| Aircraft | A20N/M-SDE2E3FGHIJ1RWXY/LB1 |
Departure
| Time | 2026-04-30 09:59 |
|---|---|
| Airport | Paris-Orly Airport (LFPO) |
Arrival
| Time | 2026-04-30 11:38 |
|---|---|
| Airport | Ibiza Airport (LEIB) |
| Time | Latitude | Longitude | Altitude | Speed | Heading |
|---|---|---|---|---|---|
| 2026-04-30 09:31 | 48.72619 | 2.36267 | 284 ft | 0 kts | 344° |
| 2026-04-30 09:49 | 48.72617 | 2.36267 | 284 ft | 1 kts | 344° |
| 2026-04-30 09:49 | 48.72602 | 2.36273 | 283 ft | 2 kts | 343° |
| 2026-04-30 09:49 | 48.72588 | 2.36279 | 283 ft | 2 kts | 344° |
| 2026-04-30 09:49 | 48.72574 | 2.36285 | 283 ft | 2 kts | 344° |
| 2026-04-30 09:50 | 48.72559 | 2.36291 | 282 ft | 2 kts | 344° |
| 2026-04-30 09:50 | 48.72548 | 2.36296 | 282 ft | 0 kts | 343° |
| 2026-04-30 09:50 | 48.72535 | 2.36304 | 282 ft | 2 kts | 313° |
| 2026-04-30 09:50 | 48.72527 | 2.36324 | 282 ft | 2 kts | 283° |
| 2026-04-30 09:51 | 48.72527 | 2.36343 | 282 ft | 0 kts | 257° |
| 2026-04-30 09:51 | 48.72528 | 2.36353 | 282 ft | 1 kts | 253° |
| 2026-04-30 09:51 | 48.72529 | 2.36354 | 282 ft | 0 kts | 253° |
| 2026-04-30 09:54 | 48.72528 | 2.36353 | 282 ft | 0 kts | 253° |
| 2026-04-30 09:54 | 48.72524 | 2.36330 | 282 ft | 4 kts | 253° |
| 2026-04-30 09:54 | 48.72514 | 2.36276 | 282 ft | 6 kts | 253° |
| 2026-04-30 09:55 | 48.72482 | 2.36223 | 281 ft | 8 kts | 192° |
| 2026-04-30 09:55 | 48.72425 | 2.36199 | 281 ft | 9 kts | 219° |
| 2026-04-30 09:55 | 48.72400 | 2.36107 | 281 ft | 10 kts | 255° |
| 2026-04-30 09:55 | 48.72380 | 2.35993 | 281 ft | 11 kts | 255° |
| 2026-04-30 09:56 | 48.72357 | 2.35863 | 279 ft | 14 kts | 255° |
| 2026-04-30 09:56 | 48.72338 | 2.35759 | 278 ft | 8 kts | 254° |
| 2026-04-30 09:56 | 48.72321 | 2.35670 | 278 ft | 9 kts | 254° |
| 2026-04-30 09:56 | 48.72271 | 2.35603 | 278 ft | 10 kts | 194° |
| 2026-04-30 09:57 | 48.72196 | 2.35612 | 279 ft | 10 kts | 165° |
| 2026-04-30 09:57 | 48.72120 | 2.35645 | 279 ft | 11 kts | 163° |
| 2026-04-30 09:57 | 48.72047 | 2.35706 | 279 ft | 12 kts | 131° |
| 2026-04-30 09:57 | 48.72006 | 2.35812 | 281 ft | 10 kts | 117° |
| 2026-04-30 09:58 | 48.71966 | 2.35904 | 281 ft | 7 kts | 126° |
| 2026-04-30 09:58 | 48.71958 | 2.35954 | 281 ft | 3 kts | 73° |
| 2026-04-30 09:58 | 48.71960 | 2.35968 | 281 ft | 0 kts | 72° |
| 2026-04-30 09:58 | 48.72011 | 2.36242 | 282 ft | 64 kts | 74° |
| 2026-04-30 09:59 | 48.72487 | 2.38777 | 614 ft | 156 kts | 73° |
| 2026-04-30 09:59 | 48.73061 | 2.41792 | 2234 ft | 146 kts | 78° |
| 2026-04-30 10:00 | 48.73647 | 2.45081 | 3123 ft | 176 kts | 78° |
| 2026-04-30 10:00 | 48.73981 | 2.46945 | 3555 ft | 193 kts | 78° |
| 2026-04-30 10:01 | 48.74364 | 2.51445 | 4403 ft | 234 kts | 90° |
| 2026-04-30 10:01 | 48.74308 | 2.53998 | 5014 ft | 248 kts | 94° |
| 2026-04-30 10:01 | 48.74067 | 2.56574 | 5782 ft | 254 kts | 111° |
| 2026-04-30 10:02 | 48.71478 | 2.60062 | 7423 ft | 268 kts | 161° |
| 2026-04-30 10:02 | 48.69657 | 2.60717 | 8279 ft | 272 kts | 163° |
| 2026-04-30 10:02 | 48.67800 | 2.61385 | 9099 ft | 276 kts | 163° |
| 2026-04-30 10:02 | 48.65871 | 2.61911 | 9906 ft | 283 kts | 176° |
| 2026-04-30 10:03 | 48.63903 | 2.61309 | 10616 ft | 296 kts | 200° |
| 2026-04-30 10:03 | 48.62151 | 2.59406 | 11039 ft | 320 kts | 225° |
| 2026-04-30 10:03 | 48.60679 | 2.56696 | 11439 ft | 339 kts | 228° |
| 2026-04-30 10:03 | 48.59175 | 2.53868 | 11781 ft | 357 kts | 228° |
| 2026-04-30 10:04 | 48.57555 | 2.50870 | 12092 ft | 375 kts | 227° |
| 2026-04-30 10:04 | 48.55866 | 2.47780 | 12510 ft | 387 kts | 227° |
| 2026-04-30 10:04 | 48.54122 | 2.44643 | 13178 ft | 391 kts | 225° |
| 2026-04-30 10:04 | 48.52182 | 2.41790 | 13876 ft | 392 kts | 217° |
| 2026-04-30 10:05 | 48.49991 | 2.39340 | 14542 ft | 393 kts | 209° |
| 2026-04-30 10:05 | 48.47623 | 2.37184 | 15197 ft | 396 kts | 207° |
| 2026-04-30 10:05 | 48.45244 | 2.35103 | 15829 ft | 399 kts | 206° |
| 2026-04-30 10:05 | 48.42811 | 2.32983 | 16448 ft | 403 kts | 206° |
| 2026-04-30 10:06 | 48.40387 | 2.30863 | 17055 ft | 407 kts | 206° |
| 2026-04-30 10:06 | 48.37941 | 2.28717 | 17651 ft | 410 kts | 206° |
| 2026-04-30 10:06 | 48.35473 | 2.26549 | 18238 ft | 414 kts | 206° |
| 2026-04-30 10:06 | 48.32978 | 2.24356 | 18819 ft | 417 kts | 206° |
| 2026-04-30 10:07 | 48.30363 | 2.22494 | 19342 ft | 415 kts | 193° |
| 2026-04-30 10:07 | 48.27572 | 2.21685 | 19879 ft | 410 kts | 179° |
| 2026-04-30 10:07 | 48.24742 | 2.21909 | 20426 ft | 407 kts | 168° |
| 2026-04-30 10:07 | 48.21949 | 2.22586 | 20966 ft | 410 kts | 166° |
| 2026-04-30 10:08 | 48.19113 | 2.23309 | 21456 ft | 413 kts | 166° |
| 2026-04-30 10:08 | 48.16258 | 2.24025 | 21944 ft | 417 kts | 167° |
| 2026-04-30 10:08 | 48.13410 | 2.24725 | 22428 ft | 420 kts | 167° |
| 2026-04-30 10:08 | 48.10535 | 2.25408 | 22902 ft | 423 kts | 168° |
| 2026-04-30 10:09 | 48.07573 | 2.25917 | 23379 ft | 428 kts | 171° |
| 2026-04-30 10:09 | 48.04610 | 2.26182 | 23830 ft | 432 kts | 174° |
| 2026-04-30 10:09 | 48.01584 | 2.26371 | 24266 ft | 435 kts | 173° |
| 2026-04-30 10:09 | 47.98566 | 2.26566 | 24675 ft | 438 kts | 173° |
| 2026-04-30 10:10 | 47.95527 | 2.26763 | 25076 ft | 441 kts | 174° |
| 2026-04-30 10:10 | 47.92467 | 2.26962 | 25437 ft | 444 kts | 174° |
| 2026-04-30 10:10 | 47.89332 | 2.27165 | 25790 ft | 447 kts | 174° |
| 2026-04-30 10:10 | 47.86254 | 2.27362 | 26139 ft | 450 kts | 174° |
| 2026-04-30 10:11 | 47.83122 | 2.27560 | 26468 ft | 452 kts | 174° |
| 2026-04-30 10:11 | 47.79959 | 2.27761 | 26776 ft | 455 kts | 174° |
| 2026-04-30 10:11 | 47.76794 | 2.27961 | 27081 ft | 457 kts | 174° |
| 2026-04-30 10:11 | 47.73622 | 2.28160 | 27497 ft | 457 kts | 175° |
| 2026-04-30 10:12 | 47.70515 | 2.28356 | 27930 ft | 455 kts | 175° |
| 2026-04-30 10:12 | 47.67482 | 2.28546 | 28346 ft | 454 kts | 175° |
| 2026-04-30 10:12 | 47.64259 | 2.28748 | 28784 ft | 453 kts | 175° |
| 2026-04-30 10:12 | 47.61099 | 2.28946 | 29181 ft | 453 kts | 175° |
| 2026-04-30 10:13 | 47.57962 | 2.29143 | 29555 ft | 453 kts | 175° |
| 2026-04-30 10:13 | 47.54837 | 2.29341 | 29929 ft | 453 kts | 175° |
| 2026-04-30 10:13 | 47.51696 | 2.29538 | 30309 ft | 452 kts | 175° |
| 2026-04-30 10:13 | 47.48528 | 2.29738 | 30677 ft | 452 kts | 175° |
| 2026-04-30 10:14 | 47.45354 | 2.29937 | 31038 ft | 452 kts | 175° |
| 2026-04-30 10:14 | 47.42240 | 2.30131 | 31395 ft | 451 kts | 175° |
| 2026-04-30 10:14 | 47.36369 | 2.30496 | 32035 ft | 450 kts | 176° |
| 2026-04-30 10:15 | 47.33212 | 2.30692 | 32399 ft | 449 kts | 176° |
| 2026-04-30 10:15 | 47.30138 | 2.30884 | 32745 ft | 448 kts | 176° |
| 2026-04-30 10:15 | 47.26998 | 2.31080 | 33070 ft | 447 kts | 176° |
| 2026-04-30 10:15 | 47.23911 | 2.31272 | 33366 ft | 447 kts | 176° |
| 2026-04-30 10:16 | 47.20807 | 2.31463 | 33634 ft | 447 kts | 176° |
| 2026-04-30 10:16 | 47.17698 | 2.31657 | 33887 ft | 447 kts | 176° |
| 2026-04-30 10:16 | 47.14583 | 2.31850 | 34144 ft | 447 kts | 176° |
| 2026-04-30 10:17 | 47.08385 | 2.32232 | 34711 ft | 445 kts | 176° |
| 2026-04-30 10:17 | 47.02115 | 2.32622 | 35184 ft | 443 kts | 176° |
| 2026-04-30 10:17 | 46.99056 | 2.32811 | 35388 ft | 442 kts | 176° |
| 2026-04-30 10:18 | 46.95957 | 2.33003 | 35587 ft | 442 kts | 176° |
| 2026-04-30 10:18 | 46.92895 | 2.33209 | 35783 ft | 441 kts | 175° |
| 2026-04-30 10:18 | 46.89879 | 2.33690 | 35964 ft | 440 kts | 170° |
| 2026-04-30 10:19 | 46.83870 | 2.35821 | 36311 ft | 438 kts | 160° |
| 2026-04-30 10:19 | 46.81026 | 2.37422 | 36467 ft | 438 kts | 155° |
| 2026-04-30 10:19 | 46.78271 | 2.39384 | 36632 ft | 437 kts | 150° |
| 2026-04-30 10:19 | 46.75653 | 2.41667 | 36808 ft | 437 kts | 147° |
| 2026-04-30 10:20 | 46.73072 | 2.44113 | 36987 ft | 437 kts | 146° |
| 2026-04-30 10:20 | 46.67963 | 2.48992 | 37261 ft | 438 kts | 146° |
| 2026-04-30 10:20 | 46.65914 | 2.50943 | 37356 ft | 439 kts | 146° |
| 2026-04-30 10:21 | 46.61879 | 2.54774 | 37510 ft | 440 kts | 146° |
| 2026-04-30 10:21 | 46.59282 | 2.57234 | 37613 ft | 440 kts | 146° |
| 2026-04-30 10:21 | 46.56731 | 2.59647 | 37733 ft | 440 kts | 146° |
| 2026-04-30 10:22 | 46.51577 | 2.64514 | 37922 ft | 441 kts | 147° |
| 2026-04-30 10:22 | 46.46486 | 2.69307 | 38075 ft | 442 kts | 147° |
| 2026-04-30 10:23 | 46.41339 | 2.74143 | 38246 ft | 443 kts | 147° |
| 2026-04-30 10:23 | 46.36252 | 2.78915 | 38317 ft | 446 kts | 148° |
| 2026-04-30 10:24 | 46.30957 | 2.83866 | 38406 ft | 449 kts | 148° |
| 2026-04-30 10:24 | 46.25708 | 2.88763 | 38551 ft | 449 kts | 148° |
| 2026-04-30 10:25 | 46.20713 | 2.93415 | 38682 ft | 449 kts | 148° |
| 2026-04-30 10:25 | 46.15316 | 2.98431 | 38809 ft | 450 kts | 148° |
| 2026-04-30 10:26 | 46.10706 | 3.02707 | 38904 ft | 451 kts | 148° |
| 2026-04-30 10:26 | 46.05347 | 3.07666 | 39016 ft | 451 kts | 148° |
| 2026-04-30 10:27 | 45.99952 | 3.12403 | 39074 ft | 452 kts | 154° |
| 2026-04-30 10:27 | 45.94046 | 3.15826 | 39083 ft | 452 kts | 165° |
| 2026-04-30 10:28 | 45.88437 | 3.17496 | 39076 ft | 450 kts | 174° |
| 2026-04-30 10:28 | 45.82204 | 3.17834 | 39074 ft | 449 kts | 181° |
| 2026-04-30 10:29 | 45.75954 | 3.17736 | 39077 ft | 449 kts | 181° |
| 2026-04-30 10:29 | 45.70122 | 3.17645 | 39077 ft | 449 kts | 181° |
| 2026-04-30 10:30 | 45.63784 | 3.17556 | 39083 ft | 449 kts | 181° |
| 2026-04-30 10:30 | 45.57517 | 3.17472 | 39092 ft | 450 kts | 181° |
| 2026-04-30 10:31 | 45.51252 | 3.17392 | 39094 ft | 450 kts | 181° |
| 2026-04-30 10:31 | 45.45266 | 3.17313 | 39096 ft | 450 kts | 181° |
| 2026-04-30 10:32 | 45.39218 | 3.17235 | 39076 ft | 450 kts | 181° |
| 2026-04-30 10:32 | 45.32800 | 3.17154 | 39098 ft | 449 kts | 182° |
| 2026-04-30 10:33 | 45.26440 | 3.17073 | 39111 ft | 449 kts | 182° |
| 2026-04-30 10:33 | 45.20201 | 3.16992 | 39120 ft | 450 kts | 182° |
| 2026-04-30 10:34 | 45.13902 | 3.16910 | 39118 ft | 450 kts | 182° |
| 2026-04-30 10:34 | 45.07579 | 3.16833 | 39125 ft | 450 kts | 182° |
| 2026-04-30 10:35 | 45.01297 | 3.16754 | 39127 ft | 450 kts | 182° |
| 2026-04-30 10:35 | 44.95029 | 3.16674 | 39126 ft | 450 kts | 182° |
| 2026-04-30 10:36 | 44.88807 | 3.16588 | 39122 ft | 450 kts | 182° |
| 2026-04-30 10:36 | 44.82534 | 3.16507 | 39131 ft | 449 kts | 182° |
| 2026-04-30 10:37 | 44.76287 | 3.16426 | 39128 ft | 449 kts | 182° |
| 2026-04-30 10:37 | 44.71060 | 3.16358 | 39125 ft | 448 kts | 182° |
| 2026-04-30 10:38 | 44.64503 | 3.16276 | 39126 ft | 449 kts | 182° |
| 2026-04-30 10:38 | 44.58177 | 3.16233 | 39124 ft | 449 kts | 181° |
| 2026-04-30 10:39 | 44.51943 | 3.16338 | 39121 ft | 449 kts | 181° |
| 2026-04-30 10:39 | 44.46614 | 3.16436 | 39124 ft | 449 kts | 181° |
| 2026-04-30 10:40 | 44.40207 | 3.16543 | 39119 ft | 448 kts | 181° |
| 2026-04-30 10:40 | 44.33972 | 3.16644 | 39122 ft | 448 kts | 181° |
| 2026-04-30 10:41 | 44.27722 | 3.16741 | 39120 ft | 447 kts | 182° |
| 2026-04-30 10:41 | 44.21495 | 3.16841 | 39119 ft | 447 kts | 182° |
| 2026-04-30 10:42 | 44.15256 | 3.16939 | 39117 ft | 448 kts | 182° |
| 2026-04-30 10:42 | 44.09048 | 3.16964 | 39118 ft | 447 kts | 184° |
| 2026-04-30 10:43 | 44.02848 | 3.16336 | 39118 ft | 446 kts | 187° |
| 2026-04-30 10:43 | 43.96660 | 3.15597 | 39117 ft | 445 kts | 187° |
| 2026-04-30 10:44 | 43.90476 | 3.14864 | 39117 ft | 444 kts | 187° |
| 2026-04-30 10:44 | 43.84351 | 3.14137 | 39115 ft | 444 kts | 187° |
| 2026-04-30 10:45 | 43.78133 | 3.13400 | 39113 ft | 445 kts | 188° |
| 2026-04-30 10:45 | 43.71940 | 3.12665 | 39113 ft | 445 kts | 188° |
| 2026-04-30 10:46 | 43.65747 | 3.11934 | 39111 ft | 445 kts | 188° |
| 2026-04-30 10:46 | 43.59611 | 3.11209 | 39107 ft | 444 kts | 188° |
| 2026-04-30 10:47 | 43.53425 | 3.10481 | 39102 ft | 443 kts | 188° |
| 2026-04-30 10:47 | 43.47275 | 3.09759 | 39095 ft | 444 kts | 188° |
| 2026-04-30 10:48 | 43.41148 | 3.09041 | 39094 ft | 444 kts | 188° |
| 2026-04-30 10:48 | 43.34987 | 3.08322 | 39094 ft | 444 kts | 188° |
| 2026-04-30 10:49 | 43.28818 | 3.07601 | 39092 ft | 444 kts | 188° |
| 2026-04-30 10:49 | 43.22671 | 3.06883 | 39089 ft | 444 kts | 188° |
| 2026-04-30 10:50 | 43.16517 | 3.06168 | 39086 ft | 444 kts | 188° |
| 2026-04-30 10:50 | 43.10368 | 3.05455 | 39086 ft | 444 kts | 189° |
| 2026-04-30 10:51 | 43.04216 | 3.04743 | 39085 ft | 444 kts | 189° |
| 2026-04-30 10:51 | 42.98068 | 3.04029 | 39089 ft | 444 kts | 189° |
| 2026-04-30 10:52 | 42.91896 | 3.03319 | 39095 ft | 444 kts | 189° |
| 2026-04-30 10:52 | 42.85718 | 3.02609 | 39091 ft | 443 kts | 189° |
| 2026-04-30 10:53 | 42.79604 | 3.01909 | 39105 ft | 444 kts | 189° |
| 2026-04-30 10:53 | 42.73426 | 3.01202 | 39100 ft | 443 kts | 189° |
| 2026-04-30 10:54 | 42.67251 | 3.00496 | 39099 ft | 443 kts | 190° |
| 2026-04-30 10:54 | 42.61120 | 2.99795 | 39083 ft | 442 kts | 190° |
| 2026-04-30 10:55 | 42.54987 | 2.99098 | 39103 ft | 443 kts | 190° |
| 2026-04-30 10:55 | 42.48860 | 2.98525 | 39086 ft | 444 kts | 187° |
| 2026-04-30 10:56 | 42.42620 | 2.98739 | 39093 ft | 449 kts | 182° |
| 2026-04-30 10:56 | 42.36412 | 2.99248 | 39073 ft | 448 kts | 182° |
| 2026-04-30 10:57 | 42.30177 | 2.99754 | 39075 ft | 448 kts | 182° |
| 2026-04-30 10:57 | 42.23983 | 3.00260 | 39070 ft | 448 kts | 182° |
| 2026-04-30 10:58 | 42.17719 | 3.00768 | 39062 ft | 448 kts | 183° |
| 2026-04-30 10:58 | 42.11509 | 3.01271 | 39070 ft | 449 kts | 183° |
| 2026-04-30 10:59 | 42.05274 | 3.01777 | 39063 ft | 449 kts | 183° |
| 2026-04-30 10:59 | 41.99044 | 3.02281 | 39065 ft | 449 kts | 183° |
| 2026-04-30 11:00 | 41.92828 | 3.02782 | 39068 ft | 448 kts | 183° |
| 2026-04-30 11:00 | 41.86586 | 3.03283 | 39069 ft | 449 kts | 184° |
| 2026-04-30 11:01 | 41.80369 | 3.03782 | 39063 ft | 449 kts | 184° |
| 2026-04-30 11:01 | 41.74145 | 3.04283 | 39067 ft | 450 kts | 184° |
| 2026-04-30 11:02 | 41.67896 | 3.04781 | 39068 ft | 451 kts | 183° |
| 2026-04-30 11:02 | 41.61621 | 3.05283 | 39067 ft | 452 kts | 183° |
| 2026-04-30 11:03 | 41.55372 | 3.05782 | 39059 ft | 451 kts | 183° |
| 2026-04-30 11:04 | 41.45978 | 3.06529 | 39059 ft | 452 kts | 183° |
| 2026-04-30 11:04 | 41.39726 | 3.07027 | 39062 ft | 451 kts | 184° |
| 2026-04-30 11:05 | 41.33472 | 3.07522 | 39062 ft | 452 kts | 183° |
| 2026-04-30 11:05 | 41.27179 | 3.08020 | 39047 ft | 452 kts | 183° |
| 2026-04-30 11:06 | 41.20893 | 3.08516 | 39056 ft | 453 kts | 184° |
| 2026-04-30 11:06 | 41.14642 | 3.09009 | 39051 ft | 454 kts | 184° |
| 2026-04-30 11:07 | 41.08309 | 3.09507 | 39052 ft | 454 kts | 184° |
| 2026-04-30 11:07 | 41.02036 | 3.09999 | 39053 ft | 455 kts | 184° |
| 2026-04-30 11:08 | 40.95731 | 3.10494 | 39042 ft | 455 kts | 183° |
| 2026-04-30 11:08 | 40.89432 | 3.10987 | 39090 ft | 454 kts | 183° |
| 2026-04-30 11:09 | 40.83112 | 3.11482 | 39048 ft | 453 kts | 184° |
| 2026-04-30 11:09 | 40.76824 | 3.11971 | 39039 ft | 453 kts | 183° |
| 2026-04-30 11:10 | 40.70539 | 3.12461 | 38758 ft | 452 kts | 183° |
| 2026-04-30 11:10 | 40.67403 | 3.12707 | 38466 ft | 449 kts | 183° |
| 2026-04-30 11:10 | 40.64314 | 3.12950 | 38136 ft | 446 kts | 184° |
| 2026-04-30 11:10 | 40.61214 | 3.13194 | 37692 ft | 442 kts | 184° |
| 2026-04-30 11:11 | 40.58187 | 3.13428 | 37202 ft | 441 kts | 184° |
| 2026-04-30 11:11 | 40.55094 | 3.13666 | 36704 ft | 441 kts | 184° |
| 2026-04-30 11:11 | 40.52061 | 3.13895 | 36217 ft | 440 kts | 184° |
| 2026-04-30 11:11 | 40.49014 | 3.13978 | 35722 ft | 438 kts | 187° |
| 2026-04-30 11:12 | 40.45970 | 3.13865 | 35230 ft | 437 kts | 189° |
| 2026-04-30 11:12 | 40.42935 | 3.13722 | 34741 ft | 439 kts | 188° |
| 2026-04-30 11:12 | 40.39894 | 3.13581 | 34253 ft | 439 kts | 188° |
| 2026-04-30 11:12 | 40.36815 | 3.13440 | 33786 ft | 440 kts | 188° |
| 2026-04-30 11:13 | 40.33783 | 3.13302 | 33344 ft | 441 kts | 188° |
| 2026-04-30 11:13 | 40.30694 | 3.13161 | 32894 ft | 442 kts | 188° |
| 2026-04-30 11:13 | 40.27658 | 3.13022 | 32455 ft | 442 kts | 188° |
| 2026-04-30 11:13 | 40.24583 | 3.12883 | 32017 ft | 443 kts | 188° |
| 2026-04-30 11:14 | 40.21502 | 3.12743 | 31578 ft | 445 kts | 188° |
| 2026-04-30 11:14 | 40.18412 | 3.12603 | 31138 ft | 446 kts | 188° |
| 2026-04-30 11:14 | 40.15294 | 3.12461 | 30696 ft | 447 kts | 188° |
| 2026-04-30 11:14 | 40.12179 | 3.12321 | 30261 ft | 448 kts | 188° |
| 2026-04-30 11:15 | 40.09102 | 3.12182 | 29825 ft | 449 kts | 188° |
| 2026-04-30 11:15 | 40.05986 | 3.12041 | 29386 ft | 450 kts | 187° |
| 2026-04-30 11:15 | 40.02818 | 3.11898 | 28940 ft | 451 kts | 187° |
| 2026-04-30 11:15 | 39.99671 | 3.11755 | 28492 ft | 453 kts | 187° |
| 2026-04-30 11:16 | 39.96545 | 3.11597 | 28057 ft | 453 kts | 189° |
| 2026-04-30 11:16 | 39.93453 | 3.10970 | 27611 ft | 446 kts | 199° |
| 2026-04-30 11:16 | 39.90540 | 3.09695 | 27175 ft | 442 kts | 207° |
| 2026-04-30 11:16 | 39.87779 | 3.07861 | 26737 ft | 440 kts | 213° |
| 2026-04-30 11:17 | 39.85104 | 3.05922 | 26292 ft | 437 kts | 213° |
| 2026-04-30 11:17 | 39.82455 | 3.03984 | 25851 ft | 434 kts | 213° |
| 2026-04-30 11:17 | 39.79818 | 3.02055 | 25411 ft | 432 kts | 213° |
| 2026-04-30 11:17 | 39.77173 | 3.00126 | 24969 ft | 429 kts | 213° |
| 2026-04-30 11:18 | 39.74568 | 2.98231 | 24526 ft | 427 kts | 212° |
| 2026-04-30 11:18 | 39.69402 | 2.94485 | 23644 ft | 422 kts | 212° |
| 2026-04-30 11:18 | 39.66833 | 2.92624 | 23191 ft | 420 kts | 212° |
| 2026-04-30 11:19 | 39.64288 | 2.90783 | 22743 ft | 418 kts | 212° |
| 2026-04-30 11:19 | 39.61749 | 2.88950 | 22295 ft | 416 kts | 212° |
| 2026-04-30 11:19 | 39.59175 | 2.87092 | 21850 ft | 414 kts | 212° |
| 2026-04-30 11:19 | 39.56672 | 2.85286 | 21412 ft | 412 kts | 212° |
| 2026-04-30 11:20 | 39.54180 | 2.83492 | 20964 ft | 408 kts | 212° |
| 2026-04-30 11:20 | 39.51708 | 2.81713 | 20343 ft | 405 kts | 212° |
| 2026-04-30 11:20 | 39.49239 | 2.79937 | 19637 ft | 403 kts | 212° |
| 2026-04-30 11:20 | 39.46812 | 2.78192 | 18971 ft | 401 kts | 211° |
| 2026-04-30 11:21 | 39.44456 | 2.76290 | 18304 ft | 396 kts | 219° |
| 2026-04-30 11:21 | 39.42379 | 2.73919 | 17649 ft | 391 kts | 228° |
| 2026-04-30 11:21 | 39.40614 | 2.71268 | 17036 ft | 387 kts | 232° |
| 2026-04-30 11:21 | 39.38933 | 2.68594 | 16420 ft | 384 kts | 232° |
| 2026-04-30 11:22 | 39.37265 | 2.65923 | 15883 ft | 381 kts | 232° |
| 2026-04-30 11:22 | 39.35616 | 2.63290 | 15343 ft | 378 kts | 232° |
| 2026-04-30 11:22 | 39.33964 | 2.60661 | 14751 ft | 375 kts | 232° |
| 2026-04-30 11:22 | 39.32338 | 2.58077 | 14164 ft | 372 kts | 232° |
| 2026-04-30 11:23 | 39.30714 | 2.55502 | 13556 ft | 369 kts | 232° |
| 2026-04-30 11:23 | 39.29091 | 2.52934 | 12983 ft | 365 kts | 232° |
| 2026-04-30 11:23 | 39.25897 | 2.47888 | 11818 ft | 360 kts | 232° |
| 2026-04-30 11:24 | 39.24323 | 2.45403 | 11237 ft | 357 kts | 232° |
| 2026-04-30 11:24 | 39.22768 | 2.42941 | 10818 ft | 348 kts | 233° |
| 2026-04-30 11:24 | 39.21607 | 2.40275 | 10583 ft | 335 kts | 250° |
| 2026-04-30 11:25 | 39.20118 | 2.34777 | 10171 ft | 311 kts | 250° |
| 2026-04-30 11:25 | 39.19442 | 2.32260 | 10021 ft | 299 kts | 250° |
| 2026-04-30 11:25 | 39.18134 | 2.27418 | 9814 ft | 273 kts | 250° |
| 2026-04-30 11:26 | 39.16917 | 2.22932 | 9423 ft | 261 kts | 250° |
| 2026-04-30 11:26 | 39.16318 | 2.20728 | 9090 ft | 260 kts | 250° |
| 2026-04-30 11:26 | 39.15727 | 2.18553 | 8726 ft | 260 kts | 250° |
| 2026-04-30 11:27 | 39.15130 | 2.16365 | 8351 ft | 259 kts | 250° |
| 2026-04-30 11:27 | 39.14529 | 2.14161 | 7981 ft | 259 kts | 250° |
| 2026-04-30 11:27 | 39.13934 | 2.11986 | 7613 ft | 258 kts | 250° |
| 2026-04-30 11:27 | 39.13346 | 2.09831 | 7247 ft | 258 kts | 251° |
| 2026-04-30 11:28 | 39.12149 | 2.05454 | 6488 ft | 258 kts | 251° |
| 2026-04-30 11:28 | 39.11553 | 2.03280 | 6127 ft | 257 kts | 251° |
| 2026-04-30 11:28 | 39.10958 | 2.01111 | 5903 ft | 256 kts | 251° |
| 2026-04-30 11:29 | 39.10365 | 1.98948 | 5712 ft | 257 kts | 251° |
| 2026-04-30 11:29 | 39.09764 | 1.96761 | 5518 ft | 258 kts | 251° |
| 2026-04-30 11:29 | 39.08566 | 1.92406 | 5133 ft | 257 kts | 251° |
| 2026-04-30 11:30 | 39.07370 | 1.88065 | 4747 ft | 257 kts | 251° |
| 2026-04-30 11:30 | 39.06770 | 1.85889 | 4553 ft | 257 kts | 251° |
| 2026-04-30 11:30 | 39.06172 | 1.83724 | 4360 ft | 257 kts | 251° |
| 2026-04-30 11:31 | 39.05494 | 1.81592 | 4166 ft | 257 kts | 246° |
| 2026-04-30 11:31 | 39.04709 | 1.79555 | 3974 ft | 257 kts | 244° |
| 2026-04-30 11:31 | 39.03887 | 1.77490 | 3779 ft | 257 kts | 244° |
| 2026-04-30 11:31 | 39.03072 | 1.75449 | 3582 ft | 257 kts | 244° |
| 2026-04-30 11:32 | 39.02248 | 1.73417 | 3393 ft | 251 kts | 243° |
| 2026-04-30 11:32 | 39.01441 | 1.71482 | 3218 ft | 244 kts | 243° |
| 2026-04-30 11:32 | 39.00651 | 1.69596 | 3045 ft | 236 kts | 243° |
| 2026-04-30 11:33 | 38.99175 | 1.66068 | 3024 ft | 213 kts | 243° |
| 2026-04-30 11:33 | 38.98476 | 1.64393 | 3048 ft | 210 kts | 243° |
| 2026-04-30 11:33 | 38.97797 | 1.62764 | 3021 ft | 209 kts | 243° |
| 2026-04-30 11:33 | 38.97108 | 1.61114 | 3003 ft | 208 kts | 244° |
| 2026-04-30 11:34 | 38.96426 | 1.59478 | 3001 ft | 208 kts | 244° |
| 2026-04-30 11:34 | 38.95764 | 1.57851 | 2911 ft | 204 kts | 245° |
| 2026-04-30 11:34 | 38.95115 | 1.56218 | 2571 ft | 206 kts | 245° |
| 2026-04-30 11:34 | 38.94449 | 1.54574 | 2246 ft | 207 kts | 244° |
| 2026-04-30 11:35 | 38.93785 | 1.52968 | 2019 ft | 202 kts | 244° |
| 2026-04-30 11:35 | 38.93145 | 1.51435 | 1986 ft | 185 kts | 243° |
| 2026-04-30 11:35 | 38.92564 | 1.50048 | 1914 ft | 170 kts | 244° |
| 2026-04-30 11:35 | 38.92020 | 1.48740 | 1696 ft | 159 kts | 244° |
| 2026-04-30 11:36 | 38.91520 | 1.47538 | 1508 ft | 148 kts | 244° |
| 2026-04-30 11:36 | 38.91042 | 1.46384 | 1313 ft | 144 kts | 244° |
| 2026-04-30 11:36 | 38.90567 | 1.45238 | 1129 ft | 142 kts | 244° |
| 2026-04-30 11:36 | 38.90099 | 1.44110 | 948 ft | 142 kts | 243° |
| 2026-04-30 11:37 | 38.89637 | 1.42995 | 765 ft | 141 kts | 242° |
| 2026-04-30 11:37 | 38.89170 | 1.41868 | 578 ft | 140 kts | 242° |
| 2026-04-30 11:37 | 38.88716 | 1.40767 | 388 ft | 139 kts | 242° |
| 2026-04-30 11:37 | 38.88260 | 1.39651 | 202 ft | 138 kts | 242° |
| 2026-04-30 11:38 | 38.87802 | 1.38549 | 41 ft | 137 kts | 241° |
| 2026-04-30 11:38 | 38.87381 | 1.37551 | 29 ft | 104 kts | 243° |
| 2026-04-30 11:38 | 38.87141 | 1.36959 | 28 ft | 43 kts | 246° |
| 2026-04-30 11:38 | 38.87100 | 1.36721 | 28 ft | 21 kts | 270° |
| 2026-04-30 11:39 | 38.87105 | 1.36590 | 28 ft | 13 kts | 274° |
| 2026-04-30 11:39 | 38.87168 | 1.36575 | 28 ft | 13 kts | 58° |
| 2026-04-30 11:39 | 38.87213 | 1.36687 | 28 ft | 14 kts | 62° |
| 2026-04-30 11:39 | 38.87262 | 1.36803 | 28 ft | 14 kts | 63° |
| 2026-04-30 11:40 | 38.87308 | 1.36850 | 28 ft | 8 kts | 347° |
| 2026-04-30 11:40 | 38.87365 | 1.36814 | 28 ft | 9 kts | 333° |
| 2026-04-30 11:40 | 38.87426 | 1.36791 | 28 ft | 8 kts | 19° |
| 2026-04-30 11:40 | 38.87460 | 1.36846 | 28 ft | 7 kts | 62° |
| 2026-04-30 11:41 | 38.87486 | 1.36908 | 28 ft | 8 kts | 63° |
| 2026-04-30 11:41 | 38.87516 | 1.36981 | 28 ft | 9 kts | 63° |
| 2026-04-30 11:41 | 38.87545 | 1.37053 | 28 ft | 7 kts | 63° |
| 2026-04-30 11:41 | 38.87566 | 1.37097 | 28 ft | 3 kts | 32° |
| 2026-04-30 11:42 | 38.87590 | 1.37085 | 28 ft | 4 kts | 325° |
| 2026-04-30 11:42 | 38.87613 | 1.37069 | 28 ft | 2 kts | 333° |
| 2026-04-30 11:42 | 38.87620 | 1.37064 | 28 ft | 1 kts | 332° |
| 2026-04-30 11:42 | 38.87625 | 1.37060 | 28 ft | 0 kts | 332° |